sensor_id;sensor_type;location;lat;lon;timestamp;pressure;altitude;pressure_sealevel;temperature
76009;BMP280;64700;52.130;21.270;2024-02-14T00:01:08;101021.09;;;20.71
76009;BMP280;64700;52.130;21.270;2024-02-14T00:03:34;101021.25;;;20.68
76009;BMP280;64700;52.130;21.270;2024-02-14T00:05:59;101025.47;;;20.69
76009;BMP280;64700;52.130;21.270;2024-02-14T00:08:24;101026.22;;;20.69
76009;BMP280;64700;52.130;21.270;2024-02-14T00:10:49;101027.44;;;20.68
76009;BMP280;64700;52.130;21.270;2024-02-14T00:13:15;101025.91;;;20.67
76009;BMP280;64700;52.130;21.270;2024-02-14T00:15:43;101030.16;;;20.68
76009;BMP280;64700;52.130;21.270;2024-02-14T00:18:08;101038.31;;;20.68
76009;BMP280;64700;52.130;21.270;2024-02-14T00:20:33;101031.34;;;20.67
76009;BMP280;64700;52.130;21.270;2024-02-14T00:22:58;101041.47;;;20.67
76009;BMP280;64700;52.130;21.270;2024-02-14T00:25:23;101043.13;;;20.64
76009;BMP280;64700;52.130;21.270;2024-02-14T00:27:49;101039.22;;;20.65
76009;BMP280;64700;52.130;21.270;2024-02-14T00:30:14;101037.69;;;20.64
76009;BMP280;64700;52.130;21.270;2024-02-14T00:32:40;101037.97;;;20.66
76009;BMP280;64700;52.130;21.270;2024-02-14T00:35:05;101045.84;;;20.64
76009;BMP280;64700;52.130;21.270;2024-02-14T00:37:30;101045.84;;;20.64
76009;BMP280;64700;52.130;21.270;2024-02-14T00:39:55;101043.13;;;20.64
76009;BMP280;64700;52.130;21.270;2024-02-14T00:42:22;101048.22;;;20.62
76009;BMP280;64700;52.130;21.270;2024-02-14T00:44:48;101042.03;;;20.62
76009;BMP280;64700;52.130;21.270;2024-02-14T00:47:13;101048.22;;;20.62
76009;BMP280;64700;52.130;21.270;2024-02-14T00:49:38;101050.94;;;20.62
76009;BMP280;64700;52.130;21.270;2024-02-14T00:52:04;101051.69;;;20.63
76009;BMP280;64700;52.130;21.270;2024-02-14T00:54:29;101049.44;;;20.61
76009;BMP280;64700;52.130;21.270;2024-02-14T00:56:54;101054.88;;;20.61
76009;BMP280;64700;52.130;21.270;2024-02-14T00:59:20;101051.41;;;20.61
76009;BMP280;64700;52.130;21.270;2024-02-14T01:01:45;101047.94;;;20.60
76009;BMP280;64700;52.130;21.270;2024-02-14T01:04:10;101056.84;;;20.61
76009;BMP280;64700;52.130;21.270;2024-02-14T01:06:35;101052.59;;;20.60
76009;BMP280;64700;52.130;21.270;2024-02-14T01:09:00;101055.75;;;20.58
76009;BMP280;64700;52.130;21.270;2024-02-14T01:11:26;101053.94;;;20.55
76009;BMP280;64700;52.130;21.270;2024-02-14T01:13:51;101056.66;;;20.55
76009;BMP280;64700;52.130;21.270;2024-02-14T01:16:16;101061.66;;;20.57
76009;BMP280;64700;52.130;21.270;2024-02-14T01:18:42;101064.38;;;20.57
76009;BMP280;64700;52.130;21.270;2024-02-14T01:21:07;101064.38;;;20.57
76009;BMP280;64700;52.130;21.270;2024-02-14T01:23:32;101071.00;;;20.56
76009;BMP280;64700;52.130;21.270;2024-02-14T01:25:57;101063.63;;;20.56
76009;BMP280;64700;52.130;21.270;2024-02-14T01:28:23;101068.72;;;20.54
76009;BMP280;64700;52.130;21.270;2024-02-14T01:30:48;101066.00;;;20.54
76009;BMP280;64700;52.130;21.270;2024-02-14T01:33:13;101067.22;;;20.53
76009;BMP280;64700;52.130;21.270;2024-02-14T01:35:38;101063.75;;;20.53
76009;BMP280;64700;52.130;21.270;2024-02-14T01:38:04;101055.16;;;20.54
76009;BMP280;64700;52.130;21.270;2024-02-14T01:40:29;101059.66;;;20.48
76009;BMP280;64700;52.130;21.270;2024-02-14T01:42:54;101063.16;;;20.48
76009;BMP280;64700;52.130;21.270;2024-02-14T01:45:20;101060.44;;;20.48
76009;BMP280;64700;52.130;21.270;2024-02-14T01:47:45;101061.50;;;20.51
76009;BMP280;64700;52.130;21.270;2024-02-14T01:50:10;101058.91;;;20.47
76009;BMP280;64700;52.130;21.270;2024-02-14T01:52:36;101058.91;;;20.47
76009;BMP280;64700;52.130;21.270;2024-02-14T01:55:02;101057.81;;;20.45
76009;BMP280;64700;52.130;21.270;2024-02-14T01:57:29;101063.16;;;20.48
76009;BMP280;64700;52.130;21.270;2024-02-14T01:59:55;101063.56;;;20.47
76009;BMP280;64700;52.130;21.270;2024-02-14T02:02:21;101060.53;;;20.45
76009;BMP280;64700;52.130;21.270;2024-02-14T02:04:47;101064.16;;;20.42
76009;BMP280;64700;52.130;21.270;2024-02-14T02:07:12;101067.63;;;20.42
76009;BMP280;64700;52.130;21.270;2024-02-14T02:09:37;101067.63;;;20.42
76009;BMP280;64700;52.130;21.270;2024-02-14T02:12:03;101073.06;;;20.42
76009;BMP280;64700;52.130;21.270;2024-02-14T02:14:32;101070.78;;;20.41
76009;BMP280;64700;52.130;21.270;2024-02-14T02:16:58;101074.41;;;20.38
76009;BMP280;64700;52.130;21.270;2024-02-14T02:19:23;101075.59;;;20.37
76009;BMP280;64700;52.130;21.270;2024-02-14T02:21:48;101078.63;;;20.39
76009;BMP280;64700;52.130;21.270;2024-02-14T02:24:14;101082.25;;;20.36
76009;BMP280;64700;52.130;21.270;2024-02-14T02:26:39;101075.59;;;20.37
76009;BMP280;64700;52.130;21.270;2024-02-14T02:29:04;101083.75;;;20.37
76009;BMP280;64700;52.130;21.270;2024-02-14T02:31:31;101082.56;;;20.38
76009;BMP280;64700;52.130;21.270;2024-02-14T02:33:56;101088.91;;;20.35
76009;BMP280;64700;52.130;21.270;2024-02-14T02:36:21;101081.50;;;20.35
76009;BMP280;64700;52.130;21.270;2024-02-14T02:38:49;101081.66;;;20.41
76009;BMP280;64700;52.130;21.270;2024-02-14T02:41:15;101083.75;;;20.37
76009;BMP280;64700;52.130;21.270;2024-02-14T02:43:40;101088.00;;;20.38
76009;BMP280;64700;52.130;21.270;2024-02-14T02:46:05;101081.28;;;20.30
76009;BMP280;64700;52.130;21.270;2024-02-14T02:48:33;101090.50;;;20.32
76009;BMP280;64700;52.130;21.270;2024-02-14T02:50:58;101087.78;;;20.32
76009;BMP280;64700;52.130;21.270;2024-02-14T02:53:23;101093.84;;;20.36
76009;BMP280;64700;52.130;21.270;2024-02-14T02:55:48;101099.28;;;20.36
76009;BMP280;64700;52.130;21.270;2024-02-14T02:58:16;101094.94;;;20.39
76009;BMP280;64700;52.130;21.270;2024-02-14T03:00:41;101080.97;;;20.28
76009;BMP280;64700;52.130;21.270;2024-02-14T03:03:10;101099.75;;;20.35
76009;BMP280;64700;52.130;21.270;2024-02-14T03:05:35;101103.31;;;20.32
76009;BMP280;64700;52.130;21.270;2024-02-14T03:08:01;101107.25;;;20.31
76009;BMP280;64700;52.130;21.270;2024-02-14T03:10:26;101123.00;;;20.36
76009;BMP280;64700;52.130;21.270;2024-02-14T03:12:52;101116.34;;;20.37
76009;BMP280;64700;52.130;21.270;2024-02-14T03:15:18;101119.63;;;20.32
76009;BMP280;64700;52.130;21.270;2024-02-14T03:17:43;101122.47;;;20.28
76009;BMP280;64700;52.130;21.270;2024-02-14T03:20:08;101118.13;;;20.31
76009;BMP280;64700;52.130;21.270;2024-02-14T03:22:40;101121.59;;;20.31
76009;BMP280;64700;52.130;21.270;2024-02-14T03:25:11;101126.28;;;20.31
76009;BMP280;64700;52.130;21.270;2024-02-14T03:27:37;101136.53;;;20.27
76009;BMP280;64700;52.130;21.270;2024-02-14T03:30:02;101133.03;;;20.26
76009;BMP280;64700;52.130;21.270;2024-02-14T03:32:27;101133.47;;;20.25
76009;BMP280;64700;52.130;21.270;2024-02-14T03:34:52;101136.66;;;20.23
76009;BMP280;64700;52.130;21.270;2024-02-14T03:37:18;101133.94;;;20.23
76009;BMP280;64700;52.130;21.270;2024-02-14T03:39:43;101131.97;;;20.24
76009;BMP280;64700;52.130;21.270;2024-02-14T03:42:10;101131.97;;;20.24
76009;BMP280;64700;52.130;21.270;2024-02-14T03:44:35;101128.81;;;20.25
76009;BMP280;64700;52.130;21.270;2024-02-14T03:47:02;101129.84;;;20.28
76009;BMP280;64700;52.130;21.270;2024-02-14T03:49:29;101141.19;;;20.26
76009;BMP280;64700;52.130;21.270;2024-02-14T03:51:55;101132.72;;;20.24
76009;BMP280;64700;52.130;21.270;2024-02-14T03:54:21;101138.91;;;20.25
76009;BMP280;64700;52.130;21.270;2024-02-14T03:56:46;101138.91;;;20.25
76009;BMP280;64700;52.130;21.270;2024-02-14T03:59:12;101141.44;;;20.19
76009;BMP280;64700;52.130;21.270;2024-02-14T04:01:37;101138.28;;;20.21
76009;BMP280;64700;52.130;21.270;2024-02-14T04:04:02;101142.31;;;20.16
76009;BMP280;64700;52.130;21.270;2024-02-14T04:06:28;101146.44;;;20.21
76009;BMP280;64700;52.130;21.270;2024-02-14T04:08:53;101147.53;;;20.23
76009;BMP280;64700;52.130;21.270;2024-02-14T04:11:18;101146.75;;;20.23
76009;BMP280;64700;52.130;21.270;2024-02-14T04:13:43;101145.25;;;20.22
76009;BMP280;64700;52.130;21.270;2024-02-14T04:16:08;101148.84;;;20.19
76009;BMP280;64700;52.130;21.270;2024-02-14T04:18:33;101144.91;;;20.20
76009;BMP280;64700;52.130;21.270;2024-02-14T04:20:59;101155.44;;;20.18
76009;BMP280;64700;52.130;21.270;2024-02-14T04:23:24;101149.16;;;20.21
76009;BMP280;64700;52.130;21.270;2024-02-14T04:25:50;101149.91;;;20.21
76009;BMP280;64700;52.130;21.270;2024-02-14T04:28:15;101152.63;;;20.21
76009;BMP280;64700;52.130;21.270;2024-02-14T04:30:40;101157.72;;;20.19
76009;BMP280;64700;52.130;21.270;2024-02-14T04:33:06;101155.44;;;20.18
76009;BMP280;64700;52.130;21.270;2024-02-14T04:35:33;101153.63;;;20.15
76009;BMP280;64700;52.130;21.270;2024-02-14T04:37:58;101148.38;;;20.20
76009;BMP280;64700;52.130;21.270;2024-02-14T04:40:24;101143.50;;;20.15
76009;BMP280;64700;52.130;21.270;2024-02-14T04:42:49;101145.50;;;20.15
76009;BMP280;64700;52.130;21.270;2024-02-14T04:45:15;101155.44;;;20.18
76009;BMP280;64700;52.130;21.270;2024-02-14T04:47:40;101159.06;;;20.15
76009;BMP280;64700;52.130;21.270;2024-02-14T04:50:05;101157.84;;;20.16
76009;BMP280;64700;52.130;21.270;2024-02-14T04:52:30;101164.78;;;20.17
76009;BMP280;64700;52.130;21.270;2024-02-14T04:54:56;101164.34;;;20.18
76009;BMP280;64700;52.130;21.270;2024-02-14T04:57:21;101169.34;;;20.20
76009;BMP280;64700;52.130;21.270;2024-02-14T04:59:46;101162.72;;;20.21
76009;BMP280;64700;52.130;21.270;2024-02-14T05:02:12;101166.97;;;20.22
76009;BMP280;64700;52.130;21.270;2024-02-14T05:04:37;101171.19;;;20.23
76009;BMP280;64700;52.130;21.270;2024-02-14T05:07:05;101170.44;;;20.22
76009;BMP280;64700;52.130;21.270;2024-02-14T05:09:30;101176.31;;;20.21
76009;BMP280;64700;52.130;21.270;2024-02-14T05:11:55;101173.16;;;20.22
76009;BMP280;64700;52.130;21.270;2024-02-14T05:14:21;101173.16;;;20.22
76009;BMP280;64700;52.130;21.270;2024-02-14T05:16:46;101178.59;;;20.22
76009;BMP280;64700;52.130;21.270;2024-02-14T05:19:11;101171.97;;;20.23
76009;BMP280;64700;52.130;21.270;2024-02-14T05:21:36;101185.09;;;20.25
76009;BMP280;64700;52.130;21.270;2024-02-14T05:24:03;101174.22;;;20.25
76009;BMP280;64700;52.130;21.270;2024-02-14T05:26:28;101170.75;;;20.24
76009;BMP280;64700;52.130;21.270;2024-02-14T05:28:53;101182.69;;;20.27
76009;BMP280;64700;52.130;21.270;2024-02-14T05:31:18;101175.41;;;20.24
76009;BMP280;64700;52.130;21.270;2024-02-14T05:33:43;101183.88;;;20.26
76009;BMP280;64700;52.130;21.270;2024-02-14T05:36:09;101184.66;;;20.26
76009;BMP280;64700;52.130;21.270;2024-02-14T05:38:34;101183.44;;;20.27
76009;BMP280;64700;52.130;21.270;2024-02-14T05:40:59;101190.38;;;20.28
76009;BMP280;64700;52.130;21.270;2024-02-14T05:43:25;101189.19;;;20.29
76009;BMP280;64700;52.130;21.270;2024-02-14T05:45:50;101182.22;;;20.28
76009;BMP280;64700;52.130;21.270;2024-02-14T05:48:16;101188.75;;;20.31
76009;BMP280;64700;52.130;21.270;2024-02-14T05:50:41;101188.75;;;20.31
76009;BMP280;64700;52.130;21.270;2024-02-14T05:53:06;101192.09;;;20.35
76009;BMP280;64700;52.130;21.270;2024-02-14T05:55:31;101194.81;;;20.35
76009;BMP280;64700;52.130;21.270;2024-02-14T05:57:57;101200.56;;;20.37
76009;BMP280;64700;52.130;21.270;2024-02-14T06:00:23;101203.59;;;20.39
76009;BMP280;64700;52.130;21.270;2024-02-14T06:02:49;101208.56;;;20.40
76009;BMP280;64700;52.130;21.270;2024-02-14T06:05:15;101210.41;;;20.43
76009;BMP280;64700;52.130;21.270;2024-02-14T06:07:40;101213.00;;;20.47
76009;BMP280;64700;52.130;21.270;2024-02-14T06:10:06;101213.75;;;20.47
76009;BMP280;64700;52.130;21.270;2024-02-14T06:12:31;101210.50;;;20.53
76009;BMP280;64700;52.130;21.270;2024-02-14T06:14:56;101219.38;;;20.53
76009;BMP280;64700;52.130;21.270;2024-02-14T06:17:22;101207.31;;;20.54
76009;BMP280;64700;52.130;21.270;2024-02-14T06:19:47;101209.28;;;20.54
76009;BMP280;64700;52.130;21.270;2024-02-14T06:22:12;101215.47;;;20.54
76009;BMP280;64700;52.130;21.270;2024-02-14T06:24:37;101221.97;;;20.57
76009;BMP280;64700;52.130;21.270;2024-02-14T06:27:03;101225.13;;;20.55
76009;BMP280;64700;52.130;21.270;2024-02-14T06:29:28;101221.22;;;20.56
76009;BMP280;64700;52.130;21.270;2024-02-14T06:31:53;101224.69;;;20.57
76009;BMP280;64700;52.130;21.270;2024-02-14T06:34:18;101225.47;;;20.57
76009;BMP280;64700;52.130;21.270;2024-02-14T06:36:45;101224.22;;;20.58
76009;BMP280;64700;52.130;21.270;2024-02-14T06:39:11;101218.78;;;20.58
76009;BMP280;64700;52.130;21.270;2024-02-14T06:41:36;101223.47;;;20.58
76009;BMP280;64700;52.130;21.270;2024-02-14T06:44:01;101226.94;;;20.58
76009;BMP280;64700;52.130;21.270;2024-02-14T06:46:26;101225.00;;;20.59
76009;BMP280;64700;52.130;21.270;2024-02-14T06:48:51;101226.50;;;20.60
76009;BMP280;64700;52.130;21.270;2024-02-14T06:51:17;101226.19;;;20.58
76009;BMP280;64700;52.130;21.270;2024-02-14T06:53:42;101226.50;;;20.60
76009;BMP280;64700;52.130;21.270;2024-02-14T06:56:07;101228.47;;;20.59
76009;BMP280;64700;52.130;21.270;2024-02-14T06:58:32;101221.50;;;20.58
76009;BMP280;64700;52.130;21.270;2024-02-14T07:00:57;101229.22;;;20.60
76009;BMP280;64700;52.130;21.270;2024-02-14T07:03:22;101233.16;;;20.59
76009;BMP280;64700;52.130;21.270;2024-02-14T07:05:48;101236.94;;;20.61
76009;BMP280;64700;52.130;21.270;2024-02-14T07:08:13;101232.25;;;20.62
76009;BMP280;64700;52.130;21.270;2024-02-14T07:10:40;101235.72;;;20.62
76009;BMP280;64700;52.130;21.270;2024-02-14T07:13:05;101244.63;;;20.63
76009;BMP280;64700;52.130;21.270;2024-02-14T07:15:30;101245.84;;;20.62
76009;BMP280;64700;52.130;21.270;2024-02-14T07:17:55;101240.09;;;20.60
76009;BMP280;64700;52.130;21.270;2024-02-14T07:20:22;101238.16;;;20.60
76009;BMP280;64700;52.130;21.270;2024-02-14T07:22:47;101247.81;;;20.61
76009;BMP280;64700;52.130;21.270;2024-02-14T07:25:17;101243.13;;;20.62
76009;BMP280;64700;52.130;21.270;2024-02-14T07:27:43;101235.72;;;20.62
76009;BMP280;64700;52.130;21.270;2024-02-14T07:30:08;101241.16;;;20.62
76009;BMP280;64700;52.130;21.270;2024-02-14T07:32:33;101242.72;;;20.63
76009;BMP280;64700;52.130;21.270;2024-02-14T07:34:59;101246.59;;;20.62
76009;BMP280;64700;52.130;21.270;2024-02-14T07:37:24;101241.91;;;20.63
76009;BMP280;64700;52.130;21.270;2024-02-14T07:39:50;101245.44;;;20.63
76009;BMP280;64700;52.130;21.270;2024-02-14T07:42:15;101254.75;;;20.62
76009;BMP280;64700;52.130;21.270;2024-02-14T07:44:40;101247.06;;;20.61
76009;BMP280;64700;52.130;21.270;2024-02-14T07:47:06;101241.91;;;20.63
76009;BMP280;64700;52.130;21.270;2024-02-14T07:49:31;101243.59;;;20.60
76009;BMP280;64700;52.130;21.270;2024-02-14T07:51:56;101241.16;;;20.62
76009;BMP280;64700;52.130;21.270;2024-02-14T07:54:21;101240.09;;;20.60
76009;BMP280;64700;52.130;21.270;2024-02-14T07:56:46;101244.78;;;20.59
76009;BMP280;64700;52.130;21.270;2024-02-14T07:59:12;101244.78;;;20.59
76009;BMP280;64700;52.130;21.270;2024-02-14T08:01:37;101245.97;;;20.58
76009;BMP280;64700;52.130;21.270;2024-02-14T08:04:02;101245.97;;;20.58
76009;BMP280;64700;52.130;21.270;2024-02-14T08:06:29;101254.88;;;20.59
76009;BMP280;64700;52.130;21.270;2024-02-14T08:08:54;101252.16;;;20.59
76009;BMP280;64700;52.130;21.270;2024-02-14T08:11:23;101252.63;;;20.57
76009;BMP280;64700;52.130;21.270;2024-02-14T08:13:49;101251.41;;;20.58
76009;BMP280;64700;52.130;21.270;2024-02-14T08:16:14;101243.25;;;20.58
76009;BMP280;64700;52.130;21.270;2024-02-14T08:18:39;101254.13;;;20.58
76009;BMP280;64700;52.130;21.270;2024-02-14T08:21:06;101252.94;;;20.59
76009;BMP280;64700;52.130;21.270;2024-02-14T08:23:31;101245.22;;;20.58
76009;BMP280;64700;52.130;21.270;2024-02-14T08:25:57;101241.75;;;20.57
76009;BMP280;64700;52.130;21.270;2024-02-14T08:28:22;101240.25;;;20.56
76009;BMP280;64700;52.130;21.270;2024-02-14T08:30:47;101234.81;;;20.56
76009;BMP280;64700;52.130;21.270;2024-02-14T08:33:12;101239.78;;;20.58
76009;BMP280;64700;52.130;21.270;2024-02-14T08:35:38;101234.81;;;20.56
76009;BMP280;64700;52.130;21.270;2024-02-14T08:38:03;101238.72;;;20.55
76009;BMP280;64700;52.130;21.270;2024-02-14T08:40:28;101241.44;;;20.55
76009;BMP280;64700;52.130;21.270;2024-02-14T08:42:53;101235.25;;;20.55
76009;BMP280;64700;52.130;21.270;2024-02-14T08:45:19;101239.91;;;20.54
76009;BMP280;64700;52.130;21.270;2024-02-14T08:47:44;101246.09;;;20.55
76009;BMP280;64700;52.130;21.270;2024-02-14T08:50:09;101246.53;;;20.53
76009;BMP280;64700;52.130;21.270;2024-02-14T08:52:35;101250.50;;;20.52
76009;BMP280;64700;52.130;21.270;2024-02-14T08:55:02;101244.28;;;20.52
76009;BMP280;64700;52.130;21.270;2024-02-14T08:57:27;101246.53;;;20.53
76009;BMP280;64700;52.130;21.270;2024-02-14T08:59:53;101245.06;;;20.52
76009;BMP280;64700;52.130;21.270;2024-02-14T09:02:18;101225.34;;;20.39
76009;BMP280;64700;52.130;21.270;2024-02-14T09:04:44;101243.53;;;20.51
76009;BMP280;64700;52.130;21.270;2024-02-14T09:07:09;101245.81;;;20.53
76009;BMP280;64700;52.130;21.270;2024-02-14T09:09:34;101242.00;;;20.50
76009;BMP280;64700;52.130;21.270;2024-02-14T09:12:00;101237.03;;;20.48
76009;BMP280;64700;52.130;21.270;2024-02-14T09:14:28;101244.72;;;20.50
76009;BMP280;64700;52.130;21.270;2024-02-14T09:16:53;101236.25;;;20.48
76009;BMP280;64700;52.130;21.270;2024-02-14T09:19:18;101231.59;;;20.48
76009;BMP280;64700;52.130;21.270;2024-02-14T09:21:43;101242.00;;;20.50
76009;BMP280;64700;52.130;21.270;2024-02-14T09:24:08;101239.75;;;20.48
76009;BMP280;64700;52.130;21.270;2024-02-14T09:26:34;101237.34;;;20.51
76009;BMP280;64700;52.130;21.270;2024-02-14T09:28:59;101234.31;;;20.48
76009;BMP280;64700;52.130;21.270;2024-02-14T09:31:24;101224.19;;;20.49
76009;BMP280;64700;52.130;21.270;2024-02-14T09:33:49;101226.91;;;20.49
76009;BMP280;64700;52.130;21.270;2024-02-14T09:36:15;101224.19;;;20.49
76009;BMP280;64700;52.130;21.270;2024-02-14T09:38:40;101221.03;;;20.51
76009;BMP280;64700;52.130;21.270;2024-02-14T09:41:09;101221.47;;;20.49
76009;BMP280;64700;52.130;21.270;2024-02-14T09:43:38;101222.56;;;20.52
76009;BMP280;64700;52.130;21.270;2024-02-14T09:46:06;101228.00;;;20.52
76009;BMP280;64700;52.130;21.270;2024-02-14T09:48:32;101226.78;;;20.53
76009;BMP280;64700;52.130;21.270;2024-02-14T09:50:57;101231.47;;;20.52
76009;BMP280;64700;52.130;21.270;2024-02-14T09:53:23;101231.91;;;20.51
76009;BMP280;64700;52.130;21.270;2024-02-14T09:55:49;101236.13;;;20.52
76009;BMP280;64700;52.130;21.270;2024-02-14T09:58:15;101233.41;;;20.52
76009;BMP280;64700;52.130;21.270;2024-02-14T10:00:40;101234.19;;;20.52
76009;BMP280;64700;52.130;21.270;2024-02-14T10:03:06;101231.47;;;20.52
76009;BMP280;64700;52.130;21.270;2024-02-14T10:05:31;101236.13;;;20.52
76009;BMP280;64700;52.130;21.270;2024-02-14T10:07:56;101231.13;;;20.50
76009;BMP280;64700;52.130;21.270;2024-02-14T10:10:23;101233.41;;;20.52
76009;BMP280;64700;52.130;21.270;2024-02-14T10:12:48;101228.00;;;20.52
76009;BMP280;64700;52.130;21.270;2024-02-14T10:15:13;101218.75;;;20.49
76009;BMP280;64700;52.130;21.270;2024-02-14T10:17:39;101219.84;;;20.52
76009;BMP280;64700;52.130;21.270;2024-02-14T10:20:05;101224.81;;;20.53
76009;BMP280;64700;52.130;21.270;2024-02-14T10:22:34;101219.38;;;20.53
76009;BMP280;64700;52.130;21.270;2024-02-14T10:25:00;101220.03;;;20.57
76009;BMP280;64700;52.130;21.270;2024-02-14T10:27:26;101218.03;;;20.58
76009;BMP280;64700;52.130;21.270;2024-02-14T10:29:51;101214.59;;;20.57
76009;BMP280;64700;52.130;21.270;2024-02-14T10:32:16;101217.59;;;20.59
76009;BMP280;64700;52.130;21.270;2024-02-14T10:34:41;101208.25;;;20.60
76009;BMP280;64700;52.130;21.270;2024-02-14T10:37:08;101209.00;;;20.61
76009;BMP280;64700;52.130;21.270;2024-02-14T10:39:33;101219.13;;;20.60
76009;BMP280;64700;52.130;21.270;2024-02-14T10:42:00;101211.72;;;20.61
76009;BMP280;64700;52.130;21.270;2024-02-14T10:44:26;101211.72;;;20.61
76009;BMP280;64700;52.130;21.270;2024-02-14T10:46:52;101213.22;;;20.62
76009;BMP280;64700;52.130;21.270;2024-02-14T10:49:17;101209.78;;;20.61
76009;BMP280;64700;52.130;21.270;2024-02-14T10:51:44;101209.31;;;20.63
76009;BMP280;64700;52.130;21.270;2024-02-14T10:54:13;101211.25;;;20.62
76009;BMP280;64700;52.130;21.270;2024-02-14T10:56:41;101213.56;;;20.64
76009;BMP280;64700;52.130;21.270;2024-02-14T10:59:08;101211.16;;;20.66
76009;BMP280;64700;52.130;21.270;2024-02-14T11:01:33;101207.38;;;20.63
76009;BMP280;64700;52.130;21.270;2024-02-14T11:04:00;101200.41;;;20.62
76009;BMP280;64700;52.130;21.270;2024-02-14T11:06:26;101200.75;;;20.64
76009;BMP280;64700;52.130;21.270;2024-02-14T11:09:01;101204.66;;;20.63
76009;BMP280;64700;52.130;21.270;2024-02-14T11:11:29;101200.88;;;20.61
76009;BMP280;64700;52.130;21.270;2024-02-14T11:13:55;101194.56;;;20.64
76009;BMP280;64700;52.130;21.270;2024-02-14T11:16:27;101189.53;;;20.62
76009;BMP280;64700;52.130;21.270;2024-02-14T11:19:06;101191.06;;;20.63
76009;BMP280;64700;52.130;21.270;2024-02-14T11:21:35;101193.47;;;20.61
76009;BMP280;64700;52.130;21.270;2024-02-14T11:24:04;101193.78;;;20.63
76009;BMP280;64700;52.130;21.270;2024-02-14T11:26:37;101189.13;;;20.64
76009;BMP280;64700;52.130;21.270;2024-02-14T11:29:03;101182.47;;;20.65
76009;BMP280;64700;52.130;21.270;2024-02-14T11:31:35;101187.56;;;20.63
76009;BMP280;64700;52.130;21.270;2024-02-14T11:34:03;101188.69;;;20.65
76009;BMP280;64700;52.130;21.270;2024-02-14T11:36:29;101187.16;;;20.64
76009;BMP280;64700;52.130;21.270;2024-02-14T11:38:54;101186.25;;;20.67
76009;BMP280;64700;52.130;21.270;2024-02-14T11:41:20;101175.38;;;20.67
76009;BMP280;64700;52.130;21.270;2024-02-14T11:43:51;101173.00;;;20.69
76009;BMP280;64700;52.130;21.270;2024-02-14T11:46:16;101179.47;;;20.72
76009;BMP280;64700;52.130;21.270;2024-02-14T11:48:43;101174.66;;;20.76
76009;BMP280;64700;52.130;21.270;2024-02-14T11:51:10;101173.13;;;20.75
76009;BMP280;64700;52.130;21.270;2024-02-14T11:53:36;101172.38;;;20.74
76009;BMP280;64700;52.130;21.270;2024-02-14T11:56:05;101179.03;;;20.73
76009;BMP280;64700;52.130;21.270;2024-02-14T11:58:30;101169.81;;;20.71
76009;BMP280;64700;52.130;21.270;2024-02-14T12:00:56;101171.31;;;20.72
76009;BMP280;64700;52.130;21.270;2024-02-14T12:03:24;101170.56;;;20.71
76009;BMP280;64700;52.130;21.270;2024-02-14T12:05:51;101168.59;;;20.72
76009;BMP280;64700;52.130;21.270;2024-02-14T12:08:16;101174.03;;;20.72
76009;BMP280;64700;52.130;21.270;2024-02-14T12:10:43;101177.06;;;20.74
76009;BMP280;64700;52.130;21.270;2024-02-14T12:13:09;101164.69;;;20.73
76009;BMP280;64700;52.130;21.270;2024-02-14T12:15:40;101167.09;;;20.71
76009;BMP280;64700;52.130;21.270;2024-02-14T12:18:06;101163.47;;;20.74
76009;BMP280;64700;52.130;21.270;2024-02-14T12:20:32;101169.38;;;20.72
76009;BMP280;64700;52.130;21.270;2024-02-14T12:22:58;101165.13;;;20.71
76009;BMP280;64700;52.130;21.270;2024-02-14T12:25:24;101171.31;;;20.72
76009;BMP280;64700;52.130;21.270;2024-02-14T12:27:50;101166.31;;;20.70
76009;BMP280;64700;52.130;21.270;2024-02-14T12:30:16;101168.28;;;20.70
76009;BMP280;64700;52.130;21.270;2024-02-14T12:32:42;101162.84;;;20.70
76009;BMP280;64700;52.130;21.270;2024-02-14T12:35:07;101156.22;;;20.71
76009;BMP280;64700;52.130;21.270;2024-02-14T12:37:32;101166.03;;;20.68
76009;BMP280;64700;52.130;21.270;2024-02-14T12:39:57;101155.16;;;20.68
76009;BMP280;64700;52.130;21.270;2024-02-14T12:42:23;101159.84;;;20.68
76009;BMP280;64700;52.130;21.270;2024-02-14T12:44:59;101165.28;;;20.68
76009;BMP280;64700;52.130;21.270;2024-02-14T12:47:24;101160.28;;;20.66
76009;BMP280;64700;52.130;21.270;2024-02-14T12:49:56;101158.47;;;20.63
76009;BMP280;64700;52.130;21.270;2024-02-14T12:52:24;101169.66;;;20.65
76009;BMP280;64700;52.130;21.270;2024-02-14T12:54:49;101166.94;;;20.65
76009;BMP280;64700;52.130;21.270;2024-02-14T12:57:14;101168.91;;;20.65
76009;BMP280;64700;52.130;21.270;2024-02-14T12:59:39;101174.34;;;20.65
76009;BMP280;64700;52.130;21.270;2024-02-14T13:02:05;101166.94;;;20.65
76009;BMP280;64700;52.130;21.270;2024-02-14T13:04:31;101169.34;;;20.63
76009;BMP280;64700;52.130;21.270;2024-02-14T13:06:56;101162.34;;;20.62
76009;BMP280;64700;52.130;21.270;2024-02-14T13:09:21;101163.91;;;20.63
76009;BMP280;64700;52.130;21.270;2024-02-14T13:11:47;101166.63;;;20.63
76009;BMP280;64700;52.130;21.270;2024-02-14T13:14:12;101158.47;;;20.63
76009;BMP280;64700;52.130;21.270;2024-02-14T13:16:37;101158.88;;;20.62
76009;BMP280;64700;52.130;21.270;2024-02-14T13:19:03;101150.00;;;20.61
76009;BMP280;64700;52.130;21.270;2024-02-14T13:21:30;101159.63;;;20.62
76009;BMP280;64700;52.130;21.270;2024-02-14T13:23:55;101153.91;;;20.60
76009;BMP280;64700;52.130;21.270;2024-02-14T13:26:22;101153.03;;;20.63
76009;BMP280;64700;52.130;21.270;2024-02-14T13:28:47;101154.19;;;20.62
76009;BMP280;64700;52.130;21.270;2024-02-14T13:31:12;101161.59;;;20.62
76009;BMP280;64700;52.130;21.270;2024-02-14T13:33:37;101151.47;;;20.62
76009;BMP280;64700;52.130;21.270;2024-02-14T13:36:02;101158.16;;;20.61